This is the latest recevied weather packets stored in our database for station/object VE2CSM-13. If no packets are shown the sender has not sent any weather packets the latest 10 day(s).
| Time | Temp. | Humidity | Pressure | Rain* | Wind** | Luminosity | Snow |
|---|---|---|---|---|---|---|---|
| 1777702742 | -1.67° C | 89% | 1022.7 hPa | 0 mm | - | - | - |
| 1777702622 | -1.67° C | 89% | 1022.7 hPa | 0 mm | - | - | - |
| 1777702383 | -1.67° C | 89% | 1022.7 hPa | 0 mm | - | - | - |
| 1777702142 | -1.67° C | 89% | 1022.7 hPa | 0 mm | - | - | - |
| 1777702022 | -1.67° C | 89% | 1022.8 hPa | 0 mm | - | - | - |
| 1777701903 | -1.67° C | 89% | 1022.8 hPa | 0 mm | - | - | - |
| 1777701842 | -1.67° C | 89% | 1022.8 hPa | 0 mm | - | - | - |
| 1777701783 | -1.67° C | 89% | 1022.8 hPa | 0 mm | - | - | - |
| 1777701722 | -1.67° C | 89% | 1022.8 hPa | 0 mm | - | - | - |
| 1777701284 | -1.67° C | 89% | 1022.8 hPa | 0 mm | - | - | - |
| 1777697666 | -1.67° C | 87% | 1022.8 hPa | 0 mm | - | - | - |
| 1777694065 | -0.56° C | 85% | 1022.8 hPa | 0 mm | - | - | - |
| 1777690465 | 0.56° C | 80% | 1022.5 hPa | 0 mm | - | - | - |
| 1777652665 | 7.22° C | 62% | 1019.8 hPa | 0 mm | - | - | - |
| 1777650915 | 7.22° C | 65% | 1019.9 hPa | 0 mm | - | - | - |
| 1777638265 | 4.44° C | 79% | 1019.6 hPa | 0 mm | - | - | - |
| 1777637306 | 4.44° C | 80% | 1019.5 hPa | 0 mm | - | - | - |
| 1777635386 | 3.33° C | 86% | 1019.1 hPa | 0 mm | - | - | - |
| 1777634909 | 2.78° C | 87% | 1019.2 hPa | 0 mm | - | - | - |
| 1777634425 | 2.78° C | 87% | 1019.3 hPa | 0 mm | - | - | - |
| 1777633945 | 2.78° C | 88% | 1019.3 hPa | 0 mm | - | - | - |
| 1777633466 | 2.78° C | 89% | 1019.2 hPa | 0 mm | - | - | - |
| 1777632990 | 2.78° C | 88% | 1019.2 hPa | 0 mm | - | - | - |
| 1777632746 | 2.22° C | 88% | 1019.2 hPa | 0 mm | - | - | - |
| 1777632505 | 2.22° C | 89% | 1018.9 hPa | 0 mm | - | - | - |
* Rain latest hour (hover to see other rain measurements)
** Current wind speed in m/s (hover to see current wind gust speed)